Time;durP1;ratioP1;P1;durP2;ratioP2;P2;SDS_P1;SDS_P2;PMS_P1;PMS_P2;Temp;Humidity;BMP_temperature;BMP_pressure;BME280_temperature;BME280_humidity;BME280_pressure;Samples;Min_cycle;Max_cycle;Signal;HPM_P1;HPM_P2
2022/07/16 00:03:08;;;;;;;13.98;7.53;;;;;;;18.44;61.74;100575.31;5074463;28;20298;-60
2022/07/16 00:05:39;;;;;;;44.67;12.67;;;;;;;19.11;62.71;100575.88;5074999;28;20372;-60
2022/07/16 00:08:10;;;;;;;15.63;10.53;;;;;;;19.28;59.51;100541.50;5074433;28;20496;-60
2022/07/16 00:10:40;;;;;;;64.37;12.97;;;;;;;19.54;58.93;100542.00;5074560;28;20279;-59
2022/07/16 00:13:11;;;;;;;12.37;10.07;;;;;;;19.68;58.26;100534.28;5074701;28;20287;-59
2022/07/16 00:15:43;;;;;;;14.43;10.50;;;;;;;19.99;58.34;100564.53;5074701;28;20271;-60
2022/07/16 00:21:01;;;;;;;28.00;11.03;;;;;;;20.08;58.04;100563.22;5074329;28;20327;-59
2022/07/16 00:23:32;;;;;;;13.87;8.10;;;;;;;20.23;57.98;100552.69;5074791;28;20625;-60
2022/07/16 00:26:02;;;;;;;11.63;8.00;;;;;;;20.34;55.77;100553.91;5074499;28;20329;-59
2022/07/16 00:28:33;;;;;;;56.67;9.93;;;;;;;20.00;55.25;100529.16;5074608;28;20286;-59
2022/07/16 00:31:05;;;;;;;13.07;8.27;;;;;;;20.16;56.44;100566.34;5071268;28;20302;-61
2022/07/16 00:33:36;;;;;;;10.27;7.37;;;;;;;20.32;56.58;100561.09;5074072;28;20748;-59
2022/07/16 00:36:07;;;;;;;68.67;9.97;;;;;;;20.52;56.38;100560.03;5074104;28;20287;-60
2022/07/16 00:38:38;;;;;;;80.80;11.10;;;;;;;20.60;56.44;100568.50;5075267;28;20306;-60
2022/07/16 00:41:16;;;;;;;58.33;8.20;;;;;;;20.73;56.54;100566.91;5077886;28;20297;-60
2022/07/16 00:43:48;;;;;;;7.53;5.90;;;;;;;20.86;54.98;100559.13;5077774;28;20293;-60
2022/07/16 00:46:21;;;;;;;43.87;7.33;;;;;;;20.79;54.97;100555.09;5077957;28;20291;-60
2022/07/16 00:48:52;;;;;;;118.07;12.10;;;;;;;20.88;55.98;100550.13;5077972;28;20287;-60
2022/07/16 00:51:23;;;;;;;32.73;7.20;;;;;;;20.98;54.72;100550.50;5077599;28;20412;-60
2022/07/16 00:53:55;;;;;;;11.60;5.63;;;;;;;21.25;56.29;100548.09;5078084;28;20275;-60
2022/07/16 00:56:26;;;;;;;10.67;6.17;;;;;;;21.39;54.20;100555.34;5077846;28;20575;-60
2022/07/16 00:58:57;;;;;;;9.27;5.40;;;;;;;21.24;54.63;100543.75;5077713;28;20306;-59
2022/07/16 01:01:30;;;;;;;6.70;4.93;;;;;;;21.07;53.86;100534.06;5078042;28;20300;-59
2022/07/16 01:04:01;;;;;;;11.60;5.10;;;;;;;20.88;54.60;100530.69;5077102;28;20591;-59
2022/07/16 01:06:33;;;;;;;12.13;6.03;;;;;;;20.94;54.69;100540.97;5078011;28;20287;-59
2022/07/16 01:09:05;;;;;;;7.03;5.63;;;;;;;21.04;54.75;100544.84;5078024;28;20290;-59
2022/07/16 01:11:36;;;;;;;13.97;5.57;;;;;;;20.98;54.91;100537.22;5077868;28;20275;-59
2022/07/16 01:14:08;;;;;;;18.27;5.50;;;;;;;20.95;55.03;100529.41;5077286;28;20298;-58
2022/07/16 01:16:41;;;;;;;9.03;5.37;;;;;;;20.96;53.31;100536.44;5077339;28;20565;-59
2022/07/16 01:19:13;;;;;;;8.47;4.83;;;;;;;20.99;55.10;100530.09;5077224;28;20309;-59
2022/07/16 01:21:44;;;;;;;10.33;5.03;;;;;;;20.95;53.40;100529.41;5076915;28;20385;-60
2022/07/16 01:24:16;;;;;;;5.13;4.00;;;;;;;20.90;54.67;100520.84;5076833;28;20291;-59
2022/07/16 01:26:47;;;;;;;6.03;4.07;;;;;;;21.10;54.97;100523.25;5077240;28;20313;-59
2022/07/16 01:29:17;;;;;;;14.20;5.23;;;;;;;21.19;54.14;100521.00;5077208;28;20340;-60
2022/07/16 01:31:48;;;;;;;7.20;4.30;;;;;;;21.10;54.02;100523.25;5076596;28;20655;-59
2022/07/16 01:34:27;;;;;;;6.97;4.30;;;;;;;20.92;54.16;100511.00;5077226;28;20274;-59
2022/07/16 01:36:59;;;;;;;5.37;3.80;;;;;;;20.93;55.62;100488.78;5077443;28;20287;-59
2022/07/16 01:39:33;;;;;;;8.20;4.17;;;;;;;21.13;54.38;100495.66;5075806;28;20448;-59
2022/07/16 01:42:06;;;;;;;8.20;4.60;;;;;;;21.26;54.69;100501.13;5075522;28;20307;-61
2022/07/16 01:44:38;;;;;;;12.33;4.77;;;;;;;21.54;54.64;100501.28;5076421;28;20479;-60
2022/07/16 01:47:10;;;;;;;11.57;5.10;;;;;;;21.71;54.35;100507.41;5076819;28;20293;-61
2022/07/16 01:49:41;;;;;;;57.83;6.77;;;;;;;21.74;51.89;100508.09;5076074;28;20379;-60
2022/07/16 01:52:13;;;;;;;20.67;4.50;;;;;;;21.49;52.43;100463.47;5076620;28;20040;-61
2022/07/16 01:54:47;;;;;;;10.03;3.90;;;;;;;21.47;52.35;100515.88;5076629;28;20048;-59
2022/07/16 01:57:19;;;;;;;20.97;4.13;;;;;;;21.41;52.85;100505.56;5076802;28;20052;-61
2022/07/16 01:59:50;;;;;;;7.80;3.40;;;;;;;21.49;52.76;100507.78;5076403;28;20678;-59
2022/07/16 02:02:20;;;;;;;4.00;2.90;;;;;;;21.39;52.50;100496.88;5076737;28;20599;-60
2022/07/16 02:04:51;;;;;;;6.07;3.10;;;;;;;21.47;52.94;100507.91;5076813;28;20283;-59
2022/07/16 02:07:22;;;;;;;6.70;3.20;;;;;;;21.58;53.55;100501.09;5076475;28;20599;-60
2022/07/16 02:09:54;;;;;;;22.07;4.20;;;;;;;21.48;51.16;100469.72;5076467;28;20291;-60
2022/07/16 02:12:24;;;;;;;7.00;3.00;;;;;;;21.26;52.03;100487.81;5076335;28;20568;-61
2022/07/16 02:14:55;;;;;;;6.07;3.20;;;;;;;21.19;52.92;100486.47;5076096;28;20048;-61
2022/07/16 02:17:26;;;;;;;5.07;2.90;;;;;;;21.25;54.74;100488.78;5075691;28;20301;-60
2022/07/16 02:19:56;;;;;;;9.50;3.10;;;;;;;21.24;53.45;100487.06;5075791;28;20311;-59
2022/07/16 02:22:27;;;;;;;6.83;2.77;;;;;;;21.19;53.32;100484.69;5075985;28;20286;-59
2022/07/16 02:24:59;;;;;;;4.73;3.00;;;;;;;21.17;54.93;100491.00;5075969;28;20788;-59
2022/07/16 02:27:30;;;;;;;4.50;2.60;;;;;;;21.23;54.29;100474.72;5076112;28;20518;-59
2022/07/16 02:30:01;;;;;;;9.93;3.17;;;;;;;21.13;54.98;100478.84;5075879;28;20293;-58
2022/07/16 02:32:31;;;;;;;4.20;2.60;;;;;;;21.24;54.44;100481.75;5074728;28;20295;-59
2022/07/16 02:35:02;;;;;;;6.57;2.97;;;;;;;21.29;54.83;100479.66;5075805;28;20334;-59
2022/07/16 02:37:33;;;;;;;6.50;3.00;;;;;;;21.40;54.51;100487.06;5075772;28;20060;-60
2022/07/16 02:40:06;;;;;;;7.67;3.00;;;;;;;21.37;54.12;100488.09;5075598;28;20310;-59
2022/07/16 02:42:37;;;;;;;7.80;2.77;;;;;;;21.08;55.41;100445.41;5075769;28;20286;-60
2022/07/16 02:45:09;;;;;;;4.67;2.53;;;;;;;20.97;54.79;100417.78;5075238;28;20287;-58
2022/07/16 02:47:39;;;;;;;6.67;2.90;;;;;;;21.43;55.61;100482.44;5075458;28;20287;-59
2022/07/16 02:50:11;;;;;;;12.33;3.20;;;;;;;21.36;54.41;100481.03;5075361;28;20339;-59
2022/07/16 02:52:41;;;;;;;4.57;2.60;;;;;;;21.26;53.56;100485.16;5075657;28;20297;-59
2022/07/16 02:55:13;;;;;;;6.63;2.33;;;;;;;21.14;53.39;100491.19;5074797;28;20299;-60
2022/07/16 02:57:44;;;;;;;9.70;2.90;;;;;;;20.92;55.57;100455.22;5075371;28;20555;-59
2022/07/16 03:00:17;;;;;;;4.50;3.00;;;;;;;21.11;55.65;100463.84;5072850;28;20346;-60
2022/07/16 03:02:47;;;;;;;7.87;3.00;;;;;;;21.00;55.18;100471.56;5072766;28;20342;-60
2022/07/16 03:05:18;;;;;;;157.13;13.03;;;;;;;21.06;55.22;100473.00;5075597;28;20302;-60
2022/07/16 03:07:49;;;;;;;6.83;2.70;;;;;;;20.97;55.06;100477.06;5075369;28;20350;-59
2022/07/16 03:10:22;;;;;;;53.37;5.27;;;;;;;20.93;55.11;100480.81;5075363;28;20346;-60
2022/07/16 03:12:52;;;;;;;7.10;3.27;;;;;;;20.93;55.41;100472.84;5075231;28;20342;-59
2022/07/16 03:15:23;;;;;;;7.83;2.63;;;;;;;20.98;55.77;100476.09;5075198;28;20289;-59
2022/07/16 03:17:53;;;;;;;18.53;3.60;;;;;;;20.97;55.22;100471.75;5075344;28;20317;-59
2022/07/16 03:20:25;;;;;;;60.23;5.93;;;;;;;21.00;55.92;100468.91;5075169;28;20306;-59
2022/07/16 03:22:55;;;;;;;4.67;2.90;;;;;;;20.87;55.71;100462.59;5075390;28;20306;-59
2022/07/16 03:25:28;;;;;;;22.70;3.60;;;;;;;20.78;55.43;100463.09;5075351;28;20306;-59
2022/07/16 03:27:58;;;;;;;128.13;9.27;;;;;;;20.63;55.70;100460.34;5075069;28;20299;-58
2022/07/16 03:30:29;;;;;;;105.37;8.23;;;;;;;20.36;57.05;100408.75;5074972;28;20336;-60
2022/07/16 03:33:00;;;;;;;3.83;2.20;;;;;;;20.89;56.65;100466.88;5075083;28;20290;-59
2022/07/16 03:35:31;;;;;;;122.47;10.00;;;;;;;20.95;56.96;100476.28;5075288;28;20287;-59
2022/07/16 03:40:51;;;;;;;38.20;4.43;;;;;;;20.65;56.43;100447.84;5074776;28;20313;-59
2022/07/16 03:43:22;;;;;;;5.20;2.47;;;;;;;20.76;56.74;100470.28;5074948;28;20646;-60
2022/07/16 03:45:53;;;;;;;33.70;5.27;;;;;;;20.73;56.99;100483.75;5074804;28;20285;-59
2022/07/16 03:48:23;;;;;;;13.07;3.30;;;;;;;20.80;57.05;100477.16;5074924;28;20300;-60
2022/07/16 03:50:54;;;;;;;25.10;3.47;;;;;;;21.10;56.98;100475.41;5074902;28;20334;-59
2022/07/16 03:53:24;;;;;;;9.03;2.27;;;;;;;21.56;56.64;100476.41;5074389;28;20334;-59
2022/07/16 03:55:57;;;;;;;14.23;2.77;;;;;;;21.89;55.28;100463.75;5072631;28;20301;-59
2022/07/16 03:58:27;;;;;;;66.83;5.63;;;;;;;21.78;53.39;100391.72;5074920;28;20318;-59
2022/07/16 04:00:58;;;;;;;17.53;3.43;;;;;;;22.49;53.89;100461.91;5075178;28;20667;-59
2022/07/16 04:03:29;;;;;;;2.93;2.10;;;;;;;22.66;51.78;100469.66;5075196;28;20358;-60
2022/07/16 04:06:00;;;;;;;8.20;2.43;;;;;;;22.68;52.40;100462.44;5073472;28;20286;-60
2022/07/16 04:08:31;;;;;;;20.07;2.93;;;;;;;22.82;51.48;100454.44;5073065;28;20302;-59
2022/07/16 04:11:04;;;;;;;10.60;2.53;;;;;;;23.15;51.54;100477.22;5073249;28;20643;-59
2022/07/16 04:13:38;;;;;;;11.23;2.33;;;;;;;23.24;51.05;100468.63;5077158;28;20075;-60
2022/07/16 04:16:09;;;;;;;7.27;2.13;;;;;;;23.29;49.75;100467.44;5078733;28;20325;-61
2022/07/16 04:18:40;;;;;;;4.77;2.47;;;;;;;23.24;49.86;100465.94;5078590;28;20036;-59
2022/07/16 04:21:10;;;;;;;3.90;2.07;;;;;;;23.28;49.69;100463.06;5078285;28;20120;-59
2022/07/16 04:23:41;;;;;;;5.37;2.67;;;;;;;23.17;50.77;100459.31;5078534;28;20364;-60
2022/07/16 04:26:13;;;;;;;33.93;4.20;;;;;;;23.28;50.76;100457.75;5078653;28;20090;-59
2022/07/16 04:28:44;;;;;;;4.67;2.00;;;;;;;23.19;50.60;100446.75;5078253;28;20257;-60
2022/07/16 04:31:15;;;;;;;2.30;1.70;;;;;;;23.34;49.99;100459.97;5078334;28;20052;-58
2022/07/16 04:33:45;;;;;;;2.73;1.80;;;;;;;23.18;49.73;100458.34;5078538;28;20049;-59
2022/07/16 04:36:16;;;;;;;3.83;2.20;;;;;;;23.21;49.70;100450.16;5078748;28;20056;-59
2022/07/16 04:38:47;;;;;;;18.43;2.67;;;;;;;23.21;50.93;100454.63;5078421;28;20064;-58
2022/07/16 04:41:19;;;;;;;4.47;1.90;;;;;;;23.21;49.28;100455.50;5077886;28;20207;-59
2022/07/16 04:43:50;;;;;;;22.93;3.33;;;;;;;23.15;51.05;100455.88;5078051;28;20063;-59
2022/07/16 04:46:21;;;;;;;11.23;2.13;;;;;;;22.88;50.49;100388.38;5077686;28;20071;-59
2022/07/16 04:48:52;;;;;;;7.17;2.03;;;;;;;23.37;49.03;100465.13;5077826;28;20363;-59
2022/07/16 04:51:23;;;;;;;5.10;2.57;;;;;;;23.30;50.59;100458.50;5076730;28;20068;-59
2022/07/16 04:53:53;;;;;;;2.40;1.77;;;;;;;23.28;49.03;100477.25;5078058;28;20107;-59
2022/07/16 04:56:25;;;;;;;3.63;1.70;;;;;;;23.15;50.65;100469.22;5077700;28;20106;-59
2022/07/16 04:58:56;;;;;;;4.50;2.17;;;;;;;22.97;49.26;100473.06;5077422;28;20115;-59
2022/07/16 05:01:27;;;;;;;23.47;3.33;;;;;;;22.37;50.98;100395.16;5076528;28;20075;-59
2022/07/16 05:03:57;;;;;;;3.77;2.00;;;;;;;22.45;50.19;100466.56;5077388;28;20063;-59
2022/07/16 05:06:28;;;;;;;4.13;2.20;;;;;;;22.44;51.33;100461.31;5077494;28;20071;-59
2022/07/16 05:09:01;;;;;;;3.00;2.40;;;;;;;22.37;51.38;100475.03;5077573;28;20079;-61
2022/07/16 05:11:33;;;;;;;5.97;2.50;;;;;;;22.16;51.71;100465.66;5076069;28;20059;-61
2022/07/16 05:14:04;;;;;;;7.77;2.73;;;;;;;22.11;52.66;100467.75;5077487;28;20119;-59
2022/07/16 05:16:34;;;;;;;9.87;2.97;;;;;;;21.98;51.42;100472.97;5077400;28;20056;-61
2022/07/16 05:19:05;;;;;;;5.57;3.17;;;;;;;21.79;52.55;100470.59;5077616;28;21136;-60
2022/07/16 05:21:36;;;;;;;7.20;3.23;;;;;;;21.83;53.57;100479.22;5077436;28;20056;-59
2022/07/16 05:24:07;;;;;;;4.83;3.00;;;;;;;21.94;53.74;100469.66;5076524;28;20111;-59
2022/07/16 05:26:39;;;;;;;3.47;3.10;;;;;;;21.84;52.43;100471.16;5077306;28;20108;-59
2022/07/16 05:29:10;;;;;;;5.37;3.53;;;;;;;21.87;52.86;100481.63;5076898;28;20293;-59
2022/07/16 05:31:41;;;;;;;8.23;3.93;;;;;;;21.77;53.06;100483.13;5077306;28;20547;-59
2022/07/16 05:34:11;;;;;;;4.77;3.30;;;;;;;21.61;53.64;100490.28;5076983;28;20287;-60
2022/07/16 05:36:42;;;;;;;5.40;3.50;;;;;;;21.46;52.55;100471.59;5077582;28;20301;-59
2022/07/16 05:39:12;;;;;;;4.70;3.33;;;;;;;21.31;53.69;100488.41;5076715;28;20298;-59
2022/07/16 05:41:45;;;;;;;6.30;3.97;;;;;;;21.26;54.49;100480.69;5076828;28;20444;-59
2022/07/16 05:44:15;;;;;;;7.40;3.80;;;;;;;21.21;54.72;100487.22;5076718;28;20286;-58
2022/07/16 05:46:46;;;;;;;6.50;3.43;;;;;;;21.13;54.89;100481.50;5076769;28;20286;-60
2022/07/16 05:49:16;;;;;;;5.93;3.80;;;;;;;21.08;55.12;100472.00;5076842;28;20297;-59
2022/07/16 05:51:47;;;;;;;10.40;3.73;;;;;;;20.97;54.85;100478.88;5076543;28;20975;-60
2022/07/16 05:54:18;;;;;;;8.13;3.80;;;;;;;20.88;55.23;100488.19;5076651;28;20293;-59
2022/07/16 05:56:50;;;;;;;6.47;4.07;;;;;;;20.88;55.01;100470.44;5076461;28;20290;-60
2022/07/16 05:59:20;;;;;;;13.80;4.13;;;;;;;21.07;55.07;100486.22;5076977;28;20298;-60
2022/07/16 06:01:51;;;;;;;5.67;4.00;;;;;;;21.19;55.08;100483.81;5076475;28;20325;-60
2022/07/16 06:04:22;;;;;;;6.67;3.77;;;;;;;20.97;54.99;100490.34;5076778;28;20282;-60
2022/07/16 06:06:55;;;;;;;6.40;4.03;;;;;;;21.02;55.17;100492.75;5076825;28;20283;-61
2022/07/16 06:09:26;;;;;;;9.00;4.37;;;;;;;20.98;54.93;100481.41;5076496;28;20637;-60
2022/07/16 06:11:58;;;;;;;9.97;4.87;;;;;;;21.15;54.97;100487.59;5076322;28;20287;-61
2022/07/16 06:14:28;;;;;;;6.57;4.57;;;;;;;21.08;54.34;100493.25;5076303;28;20286;-60
2022/07/16 06:16:59;;;;;;;7.13;4.40;;;;;;;20.96;55.24;100482.44;5075996;28;20591;-59
2022/07/16 06:19:30;;;;;;;5.60;4.10;;;;;;;21.00;54.98;100495.47;5076273;28;20286;-59
2022/07/16 06:22:00;;;;;;;7.23;4.83;;;;;;;20.91;55.06;100490.69;5075485;28;20619;-59
2022/07/16 06:24:31;;;;;;;7.93;4.37;;;;;;;20.74;55.87;100482.78;5076348;28;20279;-60
2022/07/16 06:27:03;;;;;;;8.23;4.27;;;;;;;20.68;55.95;100468.91;5075817;28;20283;-58
2022/07/16 06:29:34;;;;;;;6.97;4.50;;;;;;;20.72;55.63;100500.59;5076272;28;20278;-59
2022/07/16 06:32:05;;;;;;;5.30;4.10;;;;;;;20.68;56.09;100490.16;5075172;28;20287;-60
2022/07/16 06:34:36;;;;;;;8.13;3.93;;;;;;;20.78;56.07;100494.97;5074332;28;20376;-60
2022/07/16 06:37:07;;;;;;;7.53;4.30;;;;;;;20.86;56.23;100487.41;5075638;28;20282;-59
2022/07/16 06:39:38;;;;;;;4.57;3.80;;;;;;;20.53;55.33;100480.34;5074716;28;20299;-60
2022/07/16 06:42:11;;;;;;;7.60;4.93;;;;;;;20.65;56.65;100495.63;5075801;28;20298;-60
2022/07/16 06:44:41;;;;;;;5.90;4.00;;;;;;;20.62;56.08;100501.13;5076232;28;20287;-59
2022/07/16 06:47:12;;;;;;;5.93;4.00;;;;;;;20.25;56.20;100479.16;5075805;28;20302;-59
2022/07/16 06:49:43;;;;;;;7.20;4.23;;;;;;;20.26;57.09;100493.28;5076090;28;20298;-59
2022/07/16 06:52:13;;;;;;;8.20;4.33;;;;;;;20.21;57.34;100504.13;5075692;28;20637;-58
2022/07/16 06:54:44;;;;;;;10.37;4.50;;;;;;;20.03;58.00;100497.16;5075673;28;20349;-59
2022/07/16 06:57:16;;;;;;;5.10;4.03;;;;;;;19.77;58.29;100491.41;5075163;28;20289;-58
2022/07/16 06:59:47;;;;;;;5.23;4.53;;;;;;;19.42;58.58;100476.38;5075395;28;20287;-60
2022/07/16 07:02:17;;;;;;;7.97;4.30;;;;;;;19.56;58.94;100500.41;5075168;28;20318;-59
2022/07/16 07:04:48;;;;;;;6.93;4.50;;;;;;;19.49;59.22;100491.03;5075067;28;20362;-60
2022/07/16 07:07:19;;;;;;;9.57;4.33;;;;;;;19.38;59.07;100495.06;5074812;28;20293;-61
2022/07/16 07:09:50;;;;;;;6.53;4.13;;;;;;;19.21;59.82;100491.53;5074957;28;20424;-61
2022/07/16 07:12:22;;;;;;;10.23;4.57;;;;;;;18.85;60.74;100464.09;5074812;28;20301;-59
2022/07/16 07:14:53;;;;;;;7.17;4.43;;;;;;;19.05;61.42;100507.31;5074949;28;20282;-61
2022/07/16 07:17:23;;;;;;;7.70;4.53;;;;;;;18.91;61.27;100500.88;5075077;28;20282;-59
2022/07/16 07:19:54;;;;;;;8.70;5.07;;;;;;;18.86;62.09;100497.56;5075032;28;20278;-59
2022/07/16 07:22:25;;;;;;;12.07;4.93;;;;;;;18.93;61.51;100493.72;5075061;28;20306;-60
2022/07/16 07:24:55;;;;;;;6.47;4.37;;;;;;;18.83;61.83;100481.84;5074848;28;20472;-60
2022/07/16 07:27:28;;;;;;;8.07;4.90;;;;;;;18.77;62.05;100497.16;5075089;28;20324;-58
2022/07/16 07:29:58;;;;;;;8.17;4.57;;;;;;;18.71;62.64;100487.69;5074799;28;20282;-59
2022/07/16 07:32:29;;;;;;;7.40;4.37;;;;;;;18.70;62.75;100475.38;5074065;28;20302;-58
2022/07/16 07:35:00;;;;;;;5.23;4.30;;;;;;;18.84;62.10;100478.25;5074614;28;20315;-59
2022/07/16 07:37:31;;;;;;;6.27;4.57;;;;;;;19.02;62.12;100475.66;5074520;28;20287;-59
2022/07/16 07:40:03;;;;;;;8.47;4.70;;;;;;;19.11;62.47;100476.09;5074334;28;20288;-58
2022/07/16 07:42:35;;;;;;;8.10;4.97;;;;;;;19.28;62.26;100477.06;5074635;28;20306;-59
2022/07/16 07:45:06;;;;;;;6.50;4.73;;;;;;;19.07;61.39;100439.22;5074245;28;20287;-59
2022/07/16 07:47:38;;;;;;;26.30;5.63;;;;;;;19.23;62.45;100469.34;5074424;28;20309;-59
2022/07/16 07:50:10;;;;;;;7.23;5.07;;;;;;;18.77;61.62;100397.44;5074258;28;20304;-59
2022/07/16 07:52:41;;;;;;;7.53;5.20;;;;;;;18.80;62.40;100405.22;5074545;28;20603;-59
2022/07/16 07:55:12;;;;;;;11.87;5.40;;;;;;;19.16;61.43;100465.25;5071299;28;20305;-58
2022/07/16 07:57:44;;;;;;;7.93;5.07;;;;;;;18.89;61.98;100433.88;5074268;28;20289;-58
2022/07/16 08:00:15;;;;;;;8.87;5.37;;;;;;;19.12;61.69;100477.81;5072285;28;20560;-58
2022/07/16 08:02:46;;;;;;;14.03;5.40;;;;;;;19.03;61.84;100488.00;5072455;28;20317;-58
2022/07/16 08:05:17;;;;;;;11.73;5.43;;;;;;;18.95;61.95;100478.63;5073396;28;20271;-58
2022/07/16 08:07:48;;;;;;;7.90;5.07;;;;;;;19.00;62.57;100493.44;5074430;28;20310;-59
2022/07/16 08:10:19;;;;;;;12.23;5.53;;;;;;;18.81;62.69;100489.00;5074020;28;20283;-58
2022/07/16 08:12:51;;;;;;;14.00;5.37;;;;;;;18.54;63.29;100460.19;5073881;28;20290;-59
2022/07/16 08:15:22;;;;;;;11.20;6.00;;;;;;;18.62;63.13;100493.38;5074396;28;20290;-58
2022/07/16 08:17:52;;;;;;;14.03;5.90;;;;;;;18.43;63.54;100491.59;5072934;28;20677;-58
2022/07/16 08:20:23;;;;;;;10.40;5.20;;;;;;;18.28;63.94;100487.84;5074464;28;20275;-58
2022/07/16 08:23:00;;;;;;;12.60;4.90;;;;;;;18.23;64.27;100491.63;5073916;28;20338;-59
2022/07/16 08:25:45;;;;;;;7.63;4.70;;;;;;;18.29;63.93;100486.06;5073388;28;20346;-60
2022/07/16 08:28:18;;;;;;;9.73;4.73;;;;;;;18.37;64.61;100483.94;5074079;28;20310;-59
2022/07/16 08:30:48;;;;;;;8.90;5.03;;;;;;;18.32;64.13;100491.19;5074476;28;20297;-58
2022/07/16 08:33:19;;;;;;;8.27;5.37;;;;;;;18.32;64.55;100480.63;5071335;28;20562;-58
2022/07/16 08:35:51;;;;;;;8.00;4.90;;;;;;;18.20;64.30;100476.75;5073413;28;20291;-60
2022/07/16 08:38:21;;;;;;;8.47;5.00;;;;;;;17.95;65.14;100469.06;5073824;28;20267;-59
2022/07/16 08:40:56;;;;;;;12.27;5.93;;;;;;;17.98;65.55;100482.13;5073359;28;20306;-59
2022/07/16 08:43:28;;;;;;;11.77;5.13;;;;;;;17.97;65.76;100484.84;5073611;28;20299;-59
2022/07/16 08:46:00;;;;;;;6.43;4.43;;;;;;;17.99;65.72;100483.00;5073104;28;20340;-59
2022/07/16 08:48:33;;;;;;;6.50;5.00;;;;;;;18.05;65.61;100490.66;5073940;28;20340;-58
2022/07/16 08:51:08;;;;;;;6.50;4.47;;;;;;;18.08;65.55;100482.59;5074020;28;20283;-59
2022/07/16 08:53:39;;;;;;;7.97;4.97;;;;;;;17.94;65.84;100485.81;5073477;28;20407;-59
2022/07/16 08:56:10;;;;;;;10.87;4.90;;;;;;;17.83;65.99;100482.81;5083205;28;20560;-59
2022/07/16 08:58:43;;;;;;;5.03;4.53;;;;;;;17.80;66.18;100489.06;5081188;28;20298;-60
2022/07/16 09:01:14;;;;;;;6.90;5.07;;;;;;;17.51;66.52;100455.91;5088060;28;20351;-59
2022/07/16 09:03:45;;;;;;;9.27;5.00;;;;;;;17.59;66.98;100490.78;5086372;28;20318;-59
2022/07/16 09:06:15;;;;;;;10.33;5.00;;;;;;;17.50;67.18;100491.19;5087985;28;20290;-59
2022/07/16 09:08:46;;;;;;;15.50;5.27;;;;;;;17.40;67.58;100489.84;5087876;28;20298;-59
2022/07/16 09:11:21;;;;;;;22.37;5.90;;;;;;;16.90;67.94;100427.63;5087563;28;20279;-59
2022/07/16 09:14:06;;;;;;;9.43;4.70;;;;;;;17.28;68.29;100479.78;5087670;28;20279;-60
2022/07/16 09:16:39;;;;;;;7.33;4.73;;;;;;;17.21;68.19;100479.16;5087752;28;20586;-59
2022/07/16 09:19:12;;;;;;;26.93;5.60;;;;;;;17.05;68.55;100447.25;5086972;28;20282;-59
2022/07/16 09:22:01;;;;;;;8.03;4.93;;;;;;;17.19;69.08;100481.88;5084998;28;20287;-59
2022/07/16 09:24:38;;;;;;;14.03;5.13;;;;;;;17.05;69.22;100478.94;5087819;28;20300;-59
2022/07/16 09:27:11;;;;;;;21.57;5.50;;;;;;;16.89;69.44;100468.09;5088153;28;20312;-59
2022/07/16 09:29:48;;;;;;;10.30;5.03;;;;;;;16.86;70.00;100480.56;5087652;28;20321;-59
2022/07/16 09:32:29;;;;;;;12.63;4.90;;;;;;;16.79;70.44;100482.56;5086202;28;20312;-60
2022/07/16 09:35:04;;;;;;;8.20;5.00;;;;;;;16.73;70.62;100478.38;5086233;28;20294;-59
2022/07/16 09:37:49;;;;;;;8.27;5.00;;;;;;;16.62;70.96;100480.53;5086861;28;20307;-59
2022/07/16 09:40:32;;;;;;;7.00;4.73;;;;;;;16.49;71.70;100479.28;5086924;28;20374;-59
2022/07/16 09:43:04;;;;;;;7.97;4.57;;;;;;;16.44;72.03;100481.25;5087175;28;20370;-59
2022/07/16 09:45:39;;;;;;;8.47;5.27;;;;;;;16.35;72.20;100478.03;5087044;28;20325;-59
2022/07/16 09:48:21;;;;;;;7.47;4.90;;;;;;;16.35;72.62;100483.31;5086554;28;20290;-59
2022/07/16 09:50:56;;;;;;;7.70;5.37;;;;;;;16.34;72.42;100484.22;5087004;28;20283;-60
2022/07/16 09:53:28;;;;;;;9.20;4.60;;;;;;;16.33;72.46;100474.59;5087254;28;20286;-60
2022/07/16 09:56:01;;;;;;;4.83;4.23;;;;;;;16.29;72.45;100478.25;5085988;28;20297;-60
2022/07/16 09:58:31;;;;;;;7.23;4.60;;;;;;;16.24;72.60;100474.91;5083978;28;20290;-59
2022/07/16 10:01:06;;;;;;;9.63;4.73;;;;;;;16.15;72.90;100480.56;5085879;28;20486;-59
2022/07/16 10:03:36;;;;;;;9.90;4.87;;;;;;;16.08;73.25;100481.69;5085687;28;20368;-59
2022/07/16 10:06:08;;;;;;;6.67;4.23;;;;;;;15.94;73.69;100477.75;5085416;28;20300;-59
2022/07/16 10:08:41;;;;;;;6.73;4.80;;;;;;;15.88;74.13;100477.97;5083949;28;20352;-58
2022/07/16 10:11:12;;;;;;;10.80;5.80;;;;;;;15.87;74.16;100486.78;5084326;28;20283;-59
2022/07/16 10:13:44;;;;;;;9.33;6.50;;;;;;;15.87;74.73;100494.66;5083752;28;20332;-60
2022/07/16 10:16:17;;;;;;;13.37;5.90;;;;;;;15.85;74.64;100482.47;5083274;28;20314;-59
2022/07/16 10:18:49;;;;;;;7.77;4.93;;;;;;;15.74;74.43;100467.03;5084599;28;20288;-59
2022/07/16 10:21:22;;;;;;;8.93;5.00;;;;;;;15.52;75.08;100441.41;5084189;28;20278;-59
2022/07/16 10:24:06;;;;;;;7.40;4.53;;;;;;;15.58;75.43;100457.91;5085150;28;20302;-59
2022/07/16 10:26:38;;;;;;;5.67;4.50;;;;;;;15.65;75.34;100478.72;5085085;28;20332;-60
2022/07/16 10:29:09;;;;;;;29.50;6.07;;;;;;;15.63;75.21;100472.66;5084769;28;20276;-59
2022/07/16 10:32:27;;;;;;;9.47;6.27;;;;;;;15.70;75.35;100483.84;5085052;28;20283;-60
2022/07/16 10:34:35;;;;;;;9.00;5.10;;;;;;;15.56;75.43;100465.00;5085064;28;20295;-59
2022/07/16 10:37:09;;;;;;;7.33;5.00;;;;;;;15.70;75.69;100495.28;5084934;28;20279;-59
2022/07/16 10:40:01;;;;;;;13.10;4.97;;;;;;;15.72;75.68;100487.31;5084998;28;20292;-60
2022/07/16 10:42:32;;;;;;;5.73;4.60;;;;;;;15.69;75.60;100498.81;5085017;28;20605;-60
2022/07/16 10:45:03;;;;;;;5.93;4.43;;;;;;;15.51;75.59;100458.13;5085583;28;20289;-60
2022/07/16 10:47:50;;;;;;;48.70;6.30;;;;;;;15.72;75.49;100503.09;5085166;28;20328;-60
2022/07/16 10:50:23;;;;;;;11.10;4.27;;;;;;;15.70;75.38;100484.75;5085125;28;20282;-59
2022/07/16 10:52:54;;;;;;;4.73;3.90;;;;;;;15.74;75.37;100502.13;5084809;28;20286;-60
2022/07/16 10:55:36;;;;;;;6.67;3.97;;;;;;;15.74;75.33;100506.56;5084929;28;20293;-60
2022/07/16 10:58:07;;;;;;;5.47;4.40;;;;;;;15.78;75.48;100502.91;5085190;28;20461;-60
2022/07/16 11:00:39;;;;;;;6.50;3.93;;;;;;;15.80;75.45;100495.81;5085166;28;20345;-59
2022/07/16 11:03:11;;;;;;;8.07;4.60;;;;;;;15.85;75.58;100509.69;5084987;28;20301;-59
2022/07/16 11:05:47;;;;;;;6.30;4.60;;;;;;;15.81;75.82;100508.06;5085628;28;20279;-60
2022/07/16 11:08:19;;;;;;;10.87;6.30;;;;;;;15.73;75.74;100510.13;5085247;28;20339;-59
2022/07/16 11:10:51;;;;;;;9.97;5.33;;;;;;;15.71;76.10;100512.78;5085100;28;20629;-59
2022/07/16 11:13:23;;;;;;;10.23;6.27;;;;;;;15.59;76.47;100522.84;5085059;28;20275;-59
2022/07/16 11:16:08;;;;;;;7.60;4.77;;;;;;;15.53;76.84;100524.78;5085309;28;20558;-59
2022/07/16 11:18:41;;;;;;;10.57;5.37;;;;;;;15.56;76.86;100522.94;5085666;28;20286;-59
2022/07/16 11:21:12;;;;;;;10.03;5.40;;;;;;;15.53;76.95;100519.50;5085180;28;20620;-59
2022/07/16 11:23:53;;;;;;;15.87;5.67;;;;;;;15.48;77.06;100521.44;5084088;28;20303;-59
2022/07/16 11:26:24;;;;;;;15.17;6.00;;;;;;;15.41;77.14;100508.50;5084815;28;20708;-60
2022/07/16 11:28:56;;;;;;;12.47;5.80;;;;;;;15.08;77.67;100461.31;5084723;28;20270;-58
2022/07/16 11:31:28;;;;;;;11.83;5.47;;;;;;;15.26;77.97;100520.38;5084771;28;20561;-58
2022/07/16 11:34:02;;;;;;;6.17;4.40;;;;;;;15.30;78.13;100511.47;5085050;28;20278;-58
2022/07/16 11:36:35;;;;;;;12.77;5.73;;;;;;;15.21;78.90;100501.25;5085282;28;20286;-60
2022/07/16 11:39:07;;;;;;;9.53;5.77;;;;;;;15.07;79.88;100518.31;5084909;28;20281;-58
2022/07/16 11:41:41;;;;;;;9.40;5.80;;;;;;;14.90;80.33;100496.91;5084072;28;20281;-58
2022/07/16 11:44:15;;;;;;;14.20;6.80;;;;;;;14.84;81.54;100523.44;5083818;28;20338;-58
2022/07/16 11:46:48;;;;;;;11.10;7.33;;;;;;;14.33;82.70;100463.53;5084545;28;20286;-58
2022/07/16 11:49:29;;;;;;;9.90;6.93;;;;;;;14.58;83.33;100527.69;5084608;28;20353;-58
2022/07/16 11:52:01;;;;;;;12.23;6.17;;;;;;;14.49;84.01;100517.38;5084587;28;20343;-58